sensor_id;sensor_type;location;lat;lon;timestamp;pressure;altitude;pressure_sealevel;temperature;humidity
6859;BME280;3468;42.824;23.240;2023-05-25T00:02:24;68625.06;;;13.76;100.00
6859;BME280;3468;42.824;23.240;2023-05-25T00:04:51;68614.47;;;13.69;100.00
6859;BME280;3468;42.824;23.240;2023-05-25T00:07:19;68627.34;;;13.63;100.00
6859;BME280;3468;42.824;23.240;2023-05-25T00:09:45;68596.38;;;13.56;100.00
6859;BME280;3468;42.824;23.240;2023-05-25T00:12:13;68598.50;;;13.49;100.00
6859;BME280;3468;42.824;23.240;2023-05-25T00:14:40;68582.81;;;13.42;100.00
6859;BME280;3468;42.824;23.240;2023-05-25T00:17:06;68585.34;;;13.42;100.00
6859;BME280;3468;42.824;23.240;2023-05-25T00:19:34;68568.03;;;13.38;100.00
6859;BME280;3468;42.824;23.240;2023-05-25T00:22:01;68593.88;;;13.29;100.00
6859;BME280;3468;42.824;23.240;2023-05-25T00:24:29;68572.53;;;13.22;100.00
6859;BME280;3468;42.824;23.240;2023-05-25T00:26:56;68577.84;;;13.20;100.00
6859;BME280;3468;42.824;23.240;2023-05-25T00:29:23;68563.69;;;13.06;100.00
6859;BME280;3468;42.824;23.240;2023-05-25T00:31:50;68573.31;;;13.05;100.00
6859;BME280;3468;42.824;23.240;2023-05-25T00:34:17;68522.44;;;13.05;100.00
6859;BME280;3468;42.824;23.240;2023-05-25T00:36:43;68556.22;;;12.99;100.00
6859;BME280;3468;42.824;23.240;2023-05-25T00:39:13;68553.75;;;12.88;100.00
6859;BME280;3468;42.824;23.240;2023-05-25T00:41:41;68536.09;;;12.82;100.00
6859;BME280;3468;42.824;23.240;2023-05-25T00:44:09;68534.28;;;12.76;100.00
6859;BME280;3468;42.824;23.240;2023-05-25T00:46:36;68509.81;;;12.68;100.00
6859;BME280;3468;42.824;23.240;2023-05-25T00:49:03;68524.50;;;12.68;100.00
6859;BME280;3468;42.824;23.240;2023-05-25T00:51:30;68471.53;;;12.33;100.00
6859;BME280;3468;42.824;23.240;2023-05-25T00:53:58;68506.56;;;12.74;100.00
6859;BME280;3468;42.824;23.240;2023-05-25T00:56:28;68523.47;;;12.60;100.00
6859;BME280;3468;42.824;23.240;2023-05-25T00:58:59;68551.38;;;12.71;100.00
6859;BME280;3468;42.824;23.240;2023-05-25T01:01:30;68540.69;;;12.60;100.00
6859;BME280;3468;42.824;23.240;2023-05-25T01:04:05;68517.69;;;12.40;100.00
6859;BME280;3468;42.824;23.240;2023-05-25T01:06:32;68527.06;;;12.57;100.00
6859;BME280;3468;42.824;23.240;2023-05-25T01:09:03;68506.66;;;12.52;100.00
6859;BME280;3468;42.824;23.240;2023-05-25T01:11:33;68530.81;;;12.47;100.00
6859;BME280;3468;42.824;23.240;2023-05-25T01:14:02;68541.22;;;12.45;100.00
6859;BME280;3468;42.824;23.240;2023-05-25T01:16:30;68535.00;;;12.44;100.00
6859;BME280;3468;42.824;23.240;2023-05-25T01:18:57;68502.78;;;12.42;100.00
6859;BME280;3468;42.824;23.240;2023-05-25T01:21:29;68621.84;;;12.40;100.00
6859;BME280;3468;42.824;23.240;2023-05-25T01:24:02;68479.81;;;12.38;100.00
6859;BME280;3468;42.824;23.240;2023-05-25T01:26:45;68474.16;;;12.38;100.00
6859;BME280;3468;42.824;23.240;2023-05-25T01:29:13;68501.78;;;12.35;100.00
6859;BME280;3468;42.824;23.240;2023-05-25T01:31:41;68472.66;;;12.19;100.00
6859;BME280;3468;42.824;23.240;2023-05-25T01:34:08;68485.22;;;12.25;100.00
6859;BME280;3468;42.824;23.240;2023-05-25T01:36:37;68472.72;;;12.23;100.00
6859;BME280;3468;42.824;23.240;2023-05-25T01:39:04;68499.03;;;12.26;100.00
6859;BME280;3468;42.824;23.240;2023-05-25T01:41:31;68487.97;;;12.23;100.00
6859;BME280;3468;42.824;23.240;2023-05-25T01:43:58;68506.66;;;12.26;100.00
6859;BME280;3468;42.824;23.240;2023-05-25T01:46:30;68506.66;;;12.26;100.00
6859;BME280;3468;42.824;23.240;2023-05-25T01:49:04;68510.38;;;12.27;100.00
6859;BME280;3468;42.824;23.240;2023-05-25T01:51:38;68459.47;;;12.23;100.00
6859;BME280;3468;42.824;23.240;2023-05-25T01:54:12;68436.63;;;11.97;100.00
6859;BME280;3468;42.824;23.240;2023-05-25T01:56:44;68472.47;;;12.10;100.00
6859;BME280;3468;42.824;23.240;2023-05-25T01:59:14;68583.44;;;11.79;100.00
6859;BME280;3468;42.824;23.240;2023-05-25T02:01:42;68454.41;;;11.97;100.00
6859;BME280;3468;42.824;23.240;2023-05-25T02:04:09;68460.88;;;11.96;100.00
6859;BME280;3468;42.824;23.240;2023-05-25T02:06:38;68429.91;;;11.99;100.00
6859;BME280;3468;42.824;23.240;2023-05-25T02:09:25;68183.38;;;11.05;100.00
6859;BME280;3468;42.824;23.240;2023-05-25T02:11:55;68461.91;;;11.92;100.00
6859;BME280;3468;42.824;23.240;2023-05-25T02:14:21;68468.97;;;11.92;100.00
6859;BME280;3468;42.824;23.240;2023-05-25T02:16:48;68448.91;;;11.90;100.00
6859;BME280;3468;42.824;23.240;2023-05-25T02:19:15;68440.44;;;11.91;100.00
6859;BME280;3468;42.824;23.240;2023-05-25T02:21:43;68447.25;;;11.93;100.00
6859;BME280;3468;42.824;23.240;2023-05-25T02:24:10;68399.69;;;11.56;100.00
6859;BME280;3468;42.824;23.240;2023-05-25T02:26:37;68478.78;;;11.89;100.00
6859;BME280;3468;42.824;23.240;2023-05-25T02:29:05;68436.25;;;11.79;100.00
6859;BME280;3468;42.824;23.240;2023-05-25T02:31:32;68384.75;;;11.32;100.00
6859;BME280;3468;42.824;23.240;2023-05-25T02:33:58;68455.44;;;11.67;100.00
6859;BME280;3468;42.824;23.240;2023-05-25T02:36:25;68399.16;;;11.71;100.00
6859;BME280;3468;42.824;23.240;2023-05-25T02:38:54;68419.44;;;11.71;100.00
6859;BME280;3468;42.824;23.240;2023-05-25T02:41:20;68427.34;;;11.58;100.00
6859;BME280;3468;42.824;23.240;2023-05-25T02:43:48;68422.84;;;11.58;100.00
6859;BME280;3468;42.824;23.240;2023-05-25T02:46:15;68421.03;;;11.53;100.00
6859;BME280;3468;42.824;23.240;2023-05-25T02:48:42;68465.41;;;11.58;100.00
6859;BME280;3468;42.824;23.240;2023-05-25T02:51:09;68405.66;;;11.59;100.00
6859;BME280;3468;42.824;23.240;2023-05-25T02:53:35;68424.47;;;11.45;100.00
6859;BME280;3468;42.824;23.240;2023-05-25T02:56:04;68414.75;;;11.62;100.00
6859;BME280;3468;42.824;23.240;2023-05-25T02:58:31;68377.50;;;11.61;100.00
6859;BME280;3468;42.824;23.240;2023-05-25T03:00:57;68706.34;;;11.36;100.00
6859;BME280;3468;42.824;23.240;2023-05-25T03:03:25;68392.69;;;11.46;100.00
6859;BME280;3468;42.824;23.240;2023-05-25T03:05:51;68398.63;;;11.22;100.00
6859;BME280;3468;42.824;23.240;2023-05-25T03:08:18;68392.47;;;11.37;100.00
6859;BME280;3468;42.824;23.240;2023-05-25T03:10:45;68443.84;;;11.42;100.00
6859;BME280;3468;42.824;23.240;2023-05-25T03:13:13;68442.81;;;11.45;100.00
6859;BME280;3468;42.824;23.240;2023-05-25T03:15:40;68410.28;;;11.52;100.00
6859;BME280;3468;42.824;23.240;2023-05-25T03:18:06;68440.06;;;11.47;100.00
6859;BME280;3468;42.824;23.240;2023-05-25T03:20:33;68448.63;;;11.65;100.00
6859;BME280;3468;42.824;23.240;2023-05-25T03:23:00;68455.88;;;11.74;100.00
6859;BME280;3468;42.824;23.240;2023-05-25T03:25:27;68454.63;;;11.68;100.00
6859;BME280;3468;42.824;23.240;2023-05-25T03:27:54;68428.94;;;11.66;100.00
6859;BME280;3468;42.824;23.240;2023-05-25T03:30:22;68446.22;;;11.70;100.00
6859;BME280;3468;42.824;23.240;2023-05-25T03:32:49;68474.44;;;11.72;100.00
6859;BME280;3468;42.824;23.240;2023-05-25T03:35:16;68462.44;;;11.77;100.00
6859;BME280;3468;42.824;23.240;2023-05-25T03:37:43;68451.47;;;11.79;100.00
6859;BME280;3468;42.824;23.240;2023-05-25T03:40:10;68443.03;;;11.80;100.00
6859;BME280;3468;42.824;23.240;2023-05-25T03:42:37;68488.84;;;11.85;100.00
6859;BME280;3468;42.824;23.240;2023-05-25T03:45:05;68443.84;;;11.79;100.00
6859;BME280;3468;42.824;23.240;2023-05-25T03:47:34;68430.03;;;11.78;100.00
6859;BME280;3468;42.824;23.240;2023-05-25T03:50:01;68490.56;;;12.12;100.00
6859;BME280;3468;42.824;23.240;2023-05-25T03:52:28;68502.25;;;12.31;100.00
6859;BME280;3468;42.824;23.240;2023-05-25T03:54:55;68509.84;;;12.42;100.00
6859;BME280;3468;42.824;23.240;2023-05-25T03:57:21;68512.31;;;12.53;100.00
6859;BME280;3468;42.824;23.240;2023-05-25T03:59:48;68508.22;;;12.60;100.00
6859;BME280;3468;42.824;23.240;2023-05-25T04:02:15;68586.91;;;12.56;100.00
6859;BME280;3468;42.824;23.240;2023-05-25T04:04:43;68581.44;;;13.01;100.00
6859;BME280;3468;42.824;23.240;2023-05-25T04:07:10;68566.75;;;13.17;100.00
6859;BME280;3468;42.824;23.240;2023-05-25T04:09:36;68610.38;;;13.35;100.00
6859;BME280;3468;42.824;23.240;2023-05-25T04:12:03;68597.09;;;13.50;100.00
6859;BME280;3468;42.824;23.240;2023-05-25T04:14:30;68634.81;;;13.69;100.00
6859;BME280;3468;42.824;23.240;2023-05-25T04:16:57;68646.97;;;13.84;100.00
6859;BME280;3468;42.824;23.240;2023-05-25T04:19:23;68679.41;;;14.05;100.00
6859;BME280;3468;42.824;23.240;2023-05-25T04:21:51;68712.41;;;14.27;100.00
6859;BME280;3468;42.824;23.240;2023-05-25T04:24:18;68724.41;;;14.48;100.00
6859;BME280;3468;42.824;23.240;2023-05-25T04:26:45;68717.13;;;14.66;100.00
6859;BME280;3468;42.824;23.240;2023-05-25T04:29:11;68757.41;;;14.85;100.00
6859;BME280;3468;42.824;23.240;2023-05-25T04:31:39;68776.09;;;14.99;100.00
6859;BME280;3468;42.824;23.240;2023-05-25T04:34:05;68795.28;;;15.09;100.00
6859;BME280;3468;42.824;23.240;2023-05-25T04:36:33;68805.59;;;15.29;100.00
6859;BME280;3468;42.824;23.240;2023-05-25T04:39:04;68790.13;;;15.50;100.00
6859;BME280;3468;42.824;23.240;2023-05-25T04:41:31;68846.34;;;15.70;100.00
6859;BME280;3468;42.824;23.240;2023-05-25T04:43:58;68831.88;;;15.84;100.00
6859;BME280;3468;42.824;23.240;2023-05-25T04:46:25;68816.31;;;16.06;100.00
6859;BME280;3468;42.824;23.240;2023-05-25T04:48:52;68911.22;;;16.23;100.00
6859;BME280;3468;42.824;23.240;2023-05-25T04:51:19;68905.16;;;16.51;100.00
6859;BME280;3468;42.824;23.240;2023-05-25T04:53:47;68943.44;;;16.62;100.00
6859;BME280;3468;42.824;23.240;2023-05-25T04:56:15;68959.25;;;16.89;100.00
6859;BME280;3468;42.824;23.240;2023-05-25T04:58:42;68965.97;;;17.16;100.00
6859;BME280;3468;42.824;23.240;2023-05-25T05:01:09;69007.88;;;17.39;100.00
6859;BME280;3468;42.824;23.240;2023-05-25T05:03:35;69017.44;;;17.49;100.00
6859;BME280;3468;42.824;23.240;2023-05-25T05:06:02;69031.63;;;17.64;100.00
6859;BME280;3468;42.824;23.240;2023-05-25T05:08:29;69050.09;;;17.79;100.00
6859;BME280;3468;42.824;23.240;2023-05-25T05:10:56;69023.25;;;17.74;100.00
6859;BME280;3468;42.824;23.240;2023-05-25T05:13:24;69002.81;;;17.98;100.00
6859;BME280;3468;42.824;23.240;2023-05-25T05:15:51;69081.44;;;18.15;100.00
6859;BME280;3468;42.824;23.240;2023-05-25T05:18:18;69106.59;;;18.39;100.00
6859;BME280;3468;42.824;23.240;2023-05-25T05:20:45;69166.16;;;18.74;100.00
6859;BME280;3468;42.824;23.240;2023-05-25T05:23:12;69174.53;;;18.79;100.00
6859;BME280;3468;42.824;23.240;2023-05-25T05:25:39;69148.53;;;18.77;100.00
6859;BME280;3468;42.824;23.240;2023-05-25T05:28:06;69140.63;;;18.63;100.00
6859;BME280;3468;42.824;23.240;2023-05-25T05:30:34;69112.13;;;18.65;100.00
6859;BME280;3468;42.824;23.240;2023-05-25T05:33:01;69095.50;;;18.40;100.00
6859;BME280;3468;42.824;23.240;2023-05-25T05:35:27;69115.28;;;18.66;100.00
6859;BME280;3468;42.824;23.240;2023-05-25T05:37:54;69172.59;;;18.84;100.00
6859;BME280;3468;42.824;23.240;2023-05-25T05:40:21;69150.25;;;18.98;100.00
6859;BME280;3468;42.824;23.240;2023-05-25T05:42:48;69206.03;;;19.24;100.00
6859;BME280;3468;42.824;23.240;2023-05-25T05:45:15;69234.63;;;19.46;100.00
6859;BME280;3468;42.824;23.240;2023-05-25T05:47:43;69269.31;;;19.76;100.00
6859;BME280;3468;42.824;23.240;2023-05-25T05:50:10;69209.31;;;19.77;100.00
6859;BME280;3468;42.824;23.240;2023-05-25T05:52:37;69369.38;;;20.57;100.00
6859;BME280;3468;42.824;23.240;2023-05-25T05:55:04;69355.50;;;20.89;97.14
6859;BME280;3468;42.824;23.240;2023-05-25T05:57:32;69358.75;;;20.74;96.73
6859;BME280;3468;42.824;23.240;2023-05-25T05:59:58;69405.38;;;20.92;95.89
6859;BME280;3468;42.824;23.240;2023-05-25T06:02:25;69430.69;;;21.24;96.16
6859;BME280;3468;42.824;23.240;2023-05-25T06:04:53;69455.47;;;21.57;93.11
6859;BME280;3468;42.824;23.240;2023-05-25T06:07:20;69473.41;;;21.72;93.81
6859;BME280;3468;42.824;23.240;2023-05-25T06:09:47;69516.31;;;22.08;91.59
6859;BME280;3468;42.824;23.240;2023-05-25T06:12:13;69529.75;;;22.29;91.59
6859;BME280;3468;42.824;23.240;2023-05-25T06:14:40;69504.59;;;22.14;91.66
6859;BME280;3468;42.824;23.240;2023-05-25T06:17:07;69520.72;;;22.43;93.48
6859;BME280;3468;42.824;23.240;2023-05-25T06:19:34;69590.50;;;22.72;91.67
6859;BME280;3468;42.824;23.240;2023-05-25T06:22:02;69583.94;;;22.73;88.07
6859;BME280;3468;42.824;23.240;2023-05-25T06:24:29;69585.56;;;22.65;91.47
6859;BME280;3468;42.824;23.240;2023-05-25T06:26:55;69604.53;;;22.92;93.16
6859;BME280;3468;42.824;23.240;2023-05-25T06:29:22;69623.28;;;23.26;89.85
6859;BME280;3468;42.824;23.240;2023-05-25T06:31:49;69693.66;;;23.75;87.91
6859;BME280;3468;42.824;23.240;2023-05-25T06:34:15;69686.13;;;23.68;86.20
6859;BME280;3468;42.824;23.240;2023-05-25T06:36:42;69643.06;;;23.47;87.91
6859;BME280;3468;42.824;23.240;2023-05-25T06:39:10;69674.19;;;23.56;87.00
6859;BME280;3468;42.824;23.240;2023-05-25T06:41:37;69685.09;;;23.52;89.41
6859;BME280;3468;42.824;23.240;2023-05-25T06:44:04;69680.59;;;23.62;88.50
6859;BME280;3468;42.824;23.240;2023-05-25T06:46:31;69694.56;;;23.78;89.09
6859;BME280;3468;42.824;23.240;2023-05-25T06:48:58;69699.25;;;23.86;84.03
6859;BME280;3468;42.824;23.240;2023-05-25T06:51:25;69756.50;;;24.13;88.43
6859;BME280;3468;42.824;23.240;2023-05-25T06:53:52;69748.69;;;24.08;85.05
6859;BME280;3468;42.824;23.240;2023-05-25T06:56:20;69650.84;;;23.23;87.53
6859;BME280;3468;42.824;23.240;2023-05-25T06:58:48;69641.38;;;22.97;89.08
6859;BME280;3468;42.824;23.240;2023-05-25T07:01:15;69565.59;;;22.50;91.82
6859;BME280;3468;42.824;23.240;2023-05-25T07:03:42;69455.41;;;22.00;95.26
6859;BME280;3468;42.824;23.240;2023-05-25T07:06:09;69436.97;;;21.45;100.00
6859;BME280;3468;42.824;23.240;2023-05-25T07:08:36;69397.59;;;21.12;100.00
6859;BME280;3468;42.824;23.240;2023-05-25T07:11:03;69315.47;;;20.46;100.00
6859;BME280;3468;42.824;23.240;2023-05-25T07:13:31;69317.59;;;20.34;100.00
6859;BME280;3468;42.824;23.240;2023-05-25T07:15:58;69333.31;;;20.13;100.00
6859;BME280;3468;42.824;23.240;2023-05-25T07:18:25;69270.81;;;19.99;100.00
6859;BME280;3468;42.824;23.240;2023-05-25T07:20:51;69342.44;;;20.12;100.00
6859;BME280;3468;42.824;23.240;2023-05-25T07:23:18;69281.66;;;19.99;100.00
6859;BME280;3468;42.824;23.240;2023-05-25T07:25:45;69239.63;;;19.77;100.00
6859;BME280;3468;42.824;23.240;2023-05-25T07:28:12;69272.88;;;19.83;100.00
6859;BME280;3468;42.824;23.240;2023-05-25T07:30:40;69236.84;;;19.44;100.00
6859;BME280;3468;42.824;23.240;2023-05-25T07:33:07;69255.38;;;19.59;100.00
6859;BME280;3468;42.824;23.240;2023-05-25T07:35:34;69205.31;;;19.34;100.00
6859;BME280;3468;42.824;23.240;2023-05-25T07:38:02;69239.75;;;19.46;100.00
6859;BME280;3468;42.824;23.240;2023-05-25T07:40:29;69235.38;;;19.40;100.00
6859;BME280;3468;42.824;23.240;2023-05-25T07:42:56;69214.25;;;19.20;100.00
6859;BME280;3468;42.824;23.240;2023-05-25T07:45:23;69171.31;;;18.94;100.00
6859;BME280;3468;42.824;23.240;2023-05-25T07:47:51;69172.81;;;18.98;100.00
6859;BME280;3468;42.824;23.240;2023-05-25T07:50:17;69189.22;;;18.90;100.00
6859;BME280;3468;42.824;23.240;2023-05-25T07:52:44;69128.09;;;18.66;100.00
6859;BME280;3468;42.824;23.240;2023-05-25T07:55:11;69093.91;;;18.28;100.00
6859;BME280;3468;42.824;23.240;2023-05-25T07:57:38;69056.00;;;17.93;100.00
6859;BME280;3468;42.824;23.240;2023-05-25T08:00:06;69053.88;;;17.85;100.00
6859;BME280;3468;42.824;23.240;2023-05-25T08:02:33;69074.09;;;17.82;100.00
6859;BME280;3468;42.824;23.240;2023-05-25T08:05:01;69067.31;;;17.85;100.00
6859;BME280;3468;42.824;23.240;2023-05-25T08:07:31;69034.72;;;17.79;100.00
6859;BME280;3468;42.824;23.240;2023-05-25T08:09:57;69043.25;;;17.78;100.00
6859;BME280;3468;42.824;23.240;2023-05-25T08:12:24;69046.94;;;17.59;100.00
6859;BME280;3468;42.824;23.240;2023-05-25T08:14:51;69122.34;;;17.40;100.00
6859;BME280;3468;42.824;23.240;2023-05-25T08:17:18;68952.97;;;16.88;100.00
6859;BME280;3468;42.824;23.240;2023-05-25T08:19:45;69006.97;;;17.01;100.00
6859;BME280;3468;42.824;23.240;2023-05-25T08:22:13;68942.34;;;16.81;100.00
6859;BME280;3468;42.824;23.240;2023-05-25T08:24:40;68924.78;;;16.68;100.00
6859;BME280;3468;42.824;23.240;2023-05-25T08:27:06;68939.97;;;16.59;100.00
6859;BME280;3468;42.824;23.240;2023-05-25T08:29:33;68917.81;;;16.42;100.00
6859;BME280;3468;42.824;23.240;2023-05-25T08:32:00;68921.28;;;16.45;100.00
6859;BME280;3468;42.824;23.240;2023-05-25T08:34:27;68910.72;;;16.43;100.00
6859;BME280;3468;42.824;23.240;2023-05-25T08:36:55;68850.31;;;16.00;100.00
6859;BME280;3468;42.824;23.240;2023-05-25T08:39:24;68915.59;;;16.29;100.00
6859;BME280;3468;42.824;23.240;2023-05-25T08:41:51;68900.91;;;16.34;100.00
6859;BME280;3468;42.824;23.240;2023-05-25T08:44:18;68882.94;;;16.14;100.00
6859;BME280;3468;42.824;23.240;2023-05-25T08:46:46;68901.41;;;16.30;100.00
6859;BME280;3468;42.824;23.240;2023-05-25T08:49:14;68892.91;;;16.32;100.00
6859;BME280;3468;42.824;23.240;2023-05-25T08:51:45;68929.22;;;16.28;100.00
6859;BME280;3468;42.824;23.240;2023-05-25T08:54:13;68958.75;;;16.27;100.00
6859;BME280;3468;42.824;23.240;2023-05-25T08:56:48;68893.03;;;16.21;100.00
6859;BME280;3468;42.824;23.240;2023-05-25T08:59:30;68900.31;;;16.18;100.00
6859;BME280;3468;42.824;23.240;2023-05-25T09:02:10;68891.50;;;16.17;100.00
6859;BME280;3468;42.824;23.240;2023-05-25T09:04:40;68874.09;;;16.13;100.00
6859;BME280;3468;42.824;23.240;2023-05-25T09:07:07;68876.38;;;15.96;100.00
6859;BME280;3468;42.824;23.240;2023-05-25T09:09:34;68815.63;;;15.81;100.00
6859;BME280;3468;42.824;23.240;2023-05-25T09:12:05;68891.84;;;16.05;100.00
6859;BME280;3468;42.824;23.240;2023-05-25T09:14:33;68906.28;;;16.02;100.00
6859;BME280;3468;42.824;23.240;2023-05-25T09:17:02;68890.63;;;15.99;100.00
6859;BME280;3468;42.824;23.240;2023-05-25T09:19:28;68880.22;;;16.06;100.00
6859;BME280;3468;42.824;23.240;2023-05-25T09:21:55;68866.94;;;16.10;100.00
6859;BME280;3468;42.824;23.240;2023-05-25T09:24:22;68876.28;;;15.91;100.00
6859;BME280;3468;42.824;23.240;2023-05-25T09:26:49;68887.16;;;16.12;100.00
6859;BME280;3468;42.824;23.240;2023-05-25T09:29:17;68892.81;;;16.12;100.00
6859;BME280;3468;42.824;23.240;2023-05-25T09:31:45;68906.09;;;16.08;100.00
6859;BME280;3468;42.824;23.240;2023-05-25T09:34:13;68867.19;;;16.08;100.00
6859;BME280;3468;42.824;23.240;2023-05-25T09:36:40;68868.44;;;15.98;100.00
6859;BME280;3468;42.824;23.240;2023-05-25T09:39:08;68895.66;;;15.95;100.00
6859;BME280;3468;42.824;23.240;2023-05-25T09:41:35;68891.44;;;15.98;100.00
6859;BME280;3468;42.824;23.240;2023-05-25T09:44:03;68849.00;;;15.90;100.00
6859;BME280;3468;42.824;23.240;2023-05-25T09:46:31;68751.31;;;15.54;100.00
6859;BME280;3468;42.824;23.240;2023-05-25T09:49:02;68901.81;;;16.07;100.00
6859;BME280;3468;42.824;23.240;2023-05-25T09:51:29;68900.19;;;16.25;100.00
6859;BME280;3468;42.824;23.240;2023-05-25T09:53:58;68936.38;;;16.47;100.00
6859;BME280;3468;42.824;23.240;2023-05-25T09:56:25;68941.81;;;16.65;100.00
6859;BME280;3468;42.824;23.240;2023-05-25T09:58:52;68971.16;;;16.86;100.00
6859;BME280;3468;42.824;23.240;2023-05-25T10:01:19;68982.75;;;17.00;100.00
6859;BME280;3468;42.824;23.240;2023-05-25T10:03:47;68956.16;;;17.08;100.00
6859;BME280;3468;42.824;23.240;2023-05-25T10:06:15;68996.19;;;17.20;100.00
6859;BME280;3468;42.824;23.240;2023-05-25T10:08:43;68981.59;;;17.14;100.00
6859;BME280;3468;42.824;23.240;2023-05-25T10:11:12;69006.88;;;17.47;100.00
6859;BME280;3468;42.824;23.240;2023-05-25T10:13:39;68942.59;;;17.14;100.00
6859;BME280;3468;42.824;23.240;2023-05-25T10:16:08;69078.00;;;17.77;100.00
6859;BME280;3468;42.824;23.240;2023-05-25T10:18:41;69018.06;;;17.35;100.00
6859;BME280;3468;42.824;23.240;2023-05-25T10:21:12;69063.94;;;17.72;100.00
6859;BME280;3468;42.824;23.240;2023-05-25T10:23:44;69072.88;;;17.77;100.00
6859;BME280;3468;42.824;23.240;2023-05-25T10:26:17;69033.28;;;17.61;100.00
6859;BME280;3468;42.824;23.240;2023-05-25T10:28:44;69082.91;;;17.99;100.00
6859;BME280;3468;42.824;23.240;2023-05-25T10:31:13;69116.28;;;18.03;100.00
6859;BME280;3468;42.824;23.240;2023-05-25T10:33:42;69162.63;;;18.12;100.00
6859;BME280;3468;42.824;23.240;2023-05-25T10:36:11;69137.38;;;18.19;100.00
6859;BME280;3468;42.824;23.240;2023-05-25T10:38:39;69119.38;;;18.34;100.00
6859;BME280;3468;42.824;23.240;2023-05-25T10:41:08;69156.09;;;18.48;100.00
6859;BME280;3468;42.824;23.240;2023-05-25T10:43:35;69160.38;;;18.50;100.00
6859;BME280;3468;42.824;23.240;2023-05-25T10:46:04;69129.34;;;18.52;100.00
6859;BME280;3468;42.824;23.240;2023-05-25T10:48:37;69141.91;;;18.54;100.00
6859;BME280;3468;42.824;23.240;2023-05-25T10:51:05;69162.97;;;18.69;100.00
6859;BME280;3468;42.824;23.240;2023-05-25T10:53:33;69201.63;;;18.78;100.00
6859;BME280;3468;42.824;23.240;2023-05-25T10:56:01;69177.22;;;18.88;100.00
6859;BME280;3468;42.824;23.240;2023-05-25T10:58:29;69241.47;;;19.08;100.00
6859;BME280;3468;42.824;23.240;2023-05-25T11:00:58;69211.41;;;19.22;100.00
6859;BME280;3468;42.824;23.240;2023-05-25T11:03:47;69204.09;;;19.29;100.00
6859;BME280;3468;42.824;23.240;2023-05-25T11:06:15;69368.91;;;19.16;100.00
6859;BME280;3468;42.824;23.240;2023-05-25T11:08:50;69240.66;;;19.29;100.00
6859;BME280;3468;42.824;23.240;2023-05-25T11:11:19;69212.50;;;19.18;100.00
6859;BME280;3468;42.824;23.240;2023-05-25T11:13:47;69264.09;;;19.32;100.00
6859;BME280;3468;42.824;23.240;2023-05-25T11:16:19;69159.28;;;19.08;100.00
6859;BME280;3468;42.824;23.240;2023-05-25T11:18:52;69252.53;;;19.42;100.00
6859;BME280;3468;42.824;23.240;2023-05-25T11:21:40;69256.59;;;19.65;100.00
6859;BME280;3468;42.824;23.240;2023-05-25T11:24:13;69243.50;;;19.87;100.00
6859;BME280;3468;42.824;23.240;2023-05-25T11:26:57;69265.84;;;19.92;100.00
6859;BME280;3468;42.824;23.240;2023-05-25T11:29:29;69279.94;;;19.78;100.00
6859;BME280;3468;42.824;23.240;2023-05-25T11:31:56;69209.41;;;19.62;100.00
6859;BME280;3468;42.824;23.240;2023-05-25T11:34:24;69294.06;;;19.88;100.00
6859;BME280;3468;42.824;23.240;2023-05-25T11:36:52;69317.19;;;20.03;100.00
6859;BME280;3468;42.824;23.240;2023-05-25T11:39:48;69333.63;;;20.35;100.00
6859;BME280;3468;42.824;23.240;2023-05-25T11:42:26;69406.34;;;20.79;100.00
6859;BME280;3468;42.824;23.240;2023-05-25T11:44:54;69462.47;;;21.23;100.00
6859;BME280;3468;42.824;23.240;2023-05-25T11:47:21;69461.19;;;21.57;100.00
6859;BME280;3468;42.824;23.240;2023-05-25T11:49:49;69551.38;;;22.16;100.00
6859;BME280;3468;42.824;23.240;2023-05-25T11:52:17;69609.41;;;22.66;100.00
6859;BME280;3468;42.824;23.240;2023-05-25T11:54:45;69648.28;;;22.99;97.24
6859;BME280;3468;42.824;23.240;2023-05-25T11:57:17;69926.69;;;23.00;93.24
6859;BME280;3468;42.824;23.240;2023-05-25T11:59:48;69657.19;;;23.24;92.15
6859;BME280;3468;42.824;23.240;2023-05-25T12:02:15;69641.56;;;23.15;89.23
6859;BME280;3468;42.824;23.240;2023-05-25T12:04:51;69695.09;;;23.21;91.86
6859;BME280;3468;42.824;23.240;2023-05-25T12:07:19;69651.47;;;23.28;94.26
6859;BME280;3468;42.824;23.240;2023-05-25T12:09:46;69753.06;;;23.62;89.80
6859;BME280;3468;42.824;23.240;2023-05-25T12:12:12;69792.28;;;24.21;91.25
6859;BME280;3468;42.824;23.240;2023-05-25T12:14:47;69798.50;;;24.38;85.98
6859;BME280;3468;42.824;23.240;2023-05-25T12:17:14;69912.59;;;24.95;82.61
6859;BME280;3468;42.824;23.240;2023-05-25T12:19:41;69903.63;;;24.94;76.95
6859;BME280;3468;42.824;23.240;2023-05-25T12:22:10;69863.41;;;25.04;73.18
6859;BME280;3468;42.824;23.240;2023-05-25T12:24:38;69901.59;;;25.19;68.91
6859;BME280;3468;42.824;23.240;2023-05-25T12:27:15;69816.13;;;24.42;72.03
6859;BME280;3468;42.824;23.240;2023-05-25T12:29:44;69821.75;;;24.57;72.38
6859;BME280;3468;42.824;23.240;2023-05-25T12:32:13;69867.78;;;24.81;67.37
6859;BME280;3468;42.824;23.240;2023-05-25T12:34:40;69824.81;;;24.78;71.12
6859;BME280;3468;42.824;23.240;2023-05-25T12:37:16;69853.47;;;25.20;63.85
6859;BME280;3468;42.824;23.240;2023-05-25T12:39:44;69967.09;;;25.52;63.69
6859;BME280;3468;42.824;23.240;2023-05-25T12:42:12;69966.25;;;25.82;63.21
6859;BME280;3468;42.824;23.240;2023-05-25T12:44:40;70031.66;;;26.03;60.58
6859;BME280;3468;42.824;23.240;2023-05-25T12:47:13;70034.78;;;26.27;61.56
6859;BME280;3468;42.824;23.240;2023-05-25T12:49:42;70064.63;;;26.37;60.27
6859;BME280;3468;42.824;23.240;2023-05-25T12:52:10;70051.19;;;26.55;62.32
6859;BME280;3468;42.824;23.240;2023-05-25T12:54:39;70069.75;;;26.61;61.86
6859;BME280;3468;42.824;23.240;2023-05-25T12:57:10;70092.44;;;26.81;60.08
6859;BME280;3468;42.824;23.240;2023-05-25T12:59:37;70118.53;;;26.85;58.84
6859;BME280;3468;42.824;23.240;2023-05-25T13:02:05;70100.53;;;26.79;58.56
6859;BME280;3468;42.824;23.240;2023-05-25T13:04:34;70098.16;;;26.72;60.63
6859;BME280;3468;42.824;23.240;2023-05-25T13:07:02;70143.69;;;26.87;55.05
6859;BME280;3468;42.824;23.240;2023-05-25T13:09:29;70113.91;;;26.86;53.82